Emantha — V7NK7 — position and weather

sailwx.info

Track history (hours):
 
Tides and Currents Weather Stations Pressure Air Temp Water Temp Dewpoint Dewpoint Depression Visibility Wind Speed Wind Dir Waves Ship Positions

Emantha

Last reported at 2018-Feb-15 06:53 UTC. Time now 2018-Feb-18 01:49 UTC.
Position N 36°15' E 014°42'.

Length 145 m; draft 6.4 m.

Type: Tanker. MMSI: 538002971.

Date/timePositionNaut miles runAvg speedWind from/ knotsBaromVisibWave heightAir tempDewpointWater temp
2018-Feb-15 06:53N 36°15' E 014°42'411.2
2018-Feb-15 06:29N 36°16' E 014°37'511.2
2018-Feb-15 06:00N 36°18' E 014°31'611.3
2018-Feb-15 05:30N 36°20' E 014°24'611.3
2018-Feb-15 05:00N 36°22' E 014°18'611.4
2018-Feb-15 04:30N 36°24' E 014°11'611.5
2018-Feb-15 03:59N 36°26' E 014°04'511.6
2018-Feb-15 03:30N 36°28' E 013°58'611.2
2018-Feb-15 02:59N 36°30' E 013°51'611.2
2018-Feb-15 02:26N 36°32' E 013°44'511.2
2018-Feb-15 01:59N 36°34' E 013°38'  
2018-Feb-12 05:27N 36°07' W 005°14'4 7.9
2018-Feb-12 05:00N 36°06' W 005°19'1 2.0
2018-Feb-12 04:30N 36°06' W 005°18'4 7.2
2018-Feb-12 04:00N 36°02' W 005°16'3 6.7
2018-Feb-12 03:30N 35°60' W 005°19'4 8.9
2018-Feb-12 03:00N 35°58' W 005°24'510.1
2018-Feb-12 02:30N 35°57' W 005°30'25812.0
2018-Feb-11 04:59N 38°19' W 009°60'713.8
2018-Feb-11 04:30N 38°26' W 010°02'713.8
2018-Feb-11 04:00N 38°32' W 010°04'713.9
2018-Feb-11 03:30N 38°39' W 010°06'713.7
2018-Feb-11 03:00N 38°46' W 010°06'714.0
2018-Feb-11 02:30N 38°53' W 010°06'713.8
2018-Feb-11 02:00N 39°00' W 010°06'713.7
2018-Feb-11 01:30N 39°07' W 010°06'713.6
2018-Feb-11 01:00N 39°14' W 010°06'713.5
2018-Feb-11 00:30N 39°20' W 010°06'  
2018-Feb-08 12:00N 49°54' W 003°08'1110.8
2018-Feb-08 11:00N 49°59' W 002°53'4412.6
2018-Feb-08 07:30N 50°12' W 001°47'713.9
2018-Feb-08 07:00N 50°14' W 001°37'6511.8
2018-Feb-08 01:30N 50°31' E 000°02'510.7
2018-Feb-08 01:00N 50°33' E 000°10'510.7
2018-Feb-08 00:30N 50°34' E 000°18'611.4
2018-Feb-08 00:00N 50°36' E 000°26'611.9
2018-Feb-07 23:30N 50°38' E 000°35'612.2
2018-Feb-07 23:00N 50°40' E 000°44'612.9
2018-Feb-07 22:30N 50°44' E 000°52'713.1
2018-Feb-07 22:00N 50°48' E 001°01'612.9
2018-Feb-07 21:30N 50°52' E 001°08'22711.2
2018-Feb-07 01:13N 54°04' E 004°28'311.4
2018-Feb-07 00:59N 54°06' E 004°30'611.4
2018-Feb-07 00:27N 54°12' E 004°36'511.3
2018-Feb-06 23:59N 54°16' E 004°41'611.2
2018-Feb-06 23:29N 54°21' E 004°47'25811.7
2018-Feb-06 01:27N 57°47' E 009°24'511.6
2018-Feb-06 01:00N 57°48' E 009°34'911.6
2018-Feb-06 00:15N 57°49' E 009°50'411.3
2018-Feb-05 23:51N 57°49' E 009°58'511.9
2018-Feb-05 23:27N 57°49' E 010°08'512.1
2018-Feb-05 23:00N 57°50' E 010°17'611.9
2018-Feb-05 22:30N 57°50' E 010°29'612.0
2018-Feb-05 22:00N 57°50' E 010°40'611.3
2018-Feb-05 21:30N 57°47' E 010°48'611.8
2018-Feb-05 21:00N 57°43' E 010°57'611.7
2018-Feb-05 20:30N 57°39' E 011°05'612.0
2018-Feb-05 20:00N 57°35' E 011°13'612.1
2018-Feb-05 19:30N 57°31' E 011°21'611.9
2018-Feb-05 19:00N 57°26' E 011°27'612.3
2018-Feb-05 18:30N 57°20' E 011°32'612.1
2018-Feb-05 18:00N 57°15' E 011°36'612.1
2018-Feb-05 17:30N 57°09' E 011°39'612.2
2018-Feb-05 17:00N 57°03' E 011°43'612.3
2018-Feb-05 16:30N 56°57' E 011°47'9610.9
2018-Feb-05 07:44N 55°25' E 010°59'313.5
2018-Feb-05 07:30N 55°23' E 011°02'613.0
2018-Feb-05 07:00N 55°16' E 011°04'  
Track history (hours):
 
Tides and Currents Weather Stations Pressure Air Temp Water Temp Dewpoint Dewpoint Depression Visibility Wind Speed Wind Dir Waves Ship Positions

Emantha

Last reported at 2018-Feb-15 06:53 UTC. Time now 2018-Feb-18 01:49 UTC.
Position N 36°15' E 014°42'.

Length 145 m; draft 6.4 m.

Type: Tanker. MMSI: 538002971.

Date/timePositionNaut miles runAvg speedWind from/ knotsBaromVisibWave heightAir tempDewpointWater temp
2018-Feb-15 06:53N 36°15' E 014°42'411.2
2018-Feb-15 06:29N 36°16' E 014°37'511.2
2018-Feb-15 06:00N 36°18' E 014°31'611.3
2018-Feb-15 05:30N 36°20' E 014°24'611.3
2018-Feb-15 05:00N 36°22' E 014°18'611.4
2018-Feb-15 04:30N 36°24' E 014°11'611.5
2018-Feb-15 03:59N 36°26' E 014°04'511.6
2018-Feb-15 03:30N 36°28' E 013°58'611.2
2018-Feb-15 02:59N 36°30' E 013°51'611.2
2018-Feb-15 02:26N 36°32' E 013°44'511.2
2018-Feb-15 01:59N 36°34' E 013°38'  
2018-Feb-12 05:27N 36°07' W 005°14'4 7.9
2018-Feb-12 05:00N 36°06' W 005°19'1 2.0
2018-Feb-12 04:30N 36°06' W 005°18'4 7.2
2018-Feb-12 04:00N 36°02' W 005°16'3 6.7
2018-Feb-12 03:30N 35°60' W 005°19'4 8.9
2018-Feb-12 03:00N 35°58' W 005°24'510.1
2018-Feb-12 02:30N 35°57' W 005°30'25812.0
2018-Feb-11 04:59N 38°19' W 009°60'713.8
2018-Feb-11 04:30N 38°26' W 010°02'713.8
2018-Feb-11 04:00N 38°32' W 010°04'713.9
2018-Feb-11 03:30N 38°39' W 010°06'713.7
2018-Feb-11 03:00N 38°46' W 010°06'714.0
2018-Feb-11 02:30N 38°53' W 010°06'713.8
2018-Feb-11 02:00N 39°00' W 010°06'713.7
2018-Feb-11 01:30N 39°07' W 010°06'713.6
2018-Feb-11 01:00N 39°14' W 010°06'713.5
2018-Feb-11 00:30N 39°20' W 010°06'  
2018-Feb-08 12:00N 49°54' W 003°08'1110.8
2018-Feb-08 11:00N 49°59' W 002°53'4412.6
2018-Feb-08 07:30N 50°12' W 001°47'713.9
2018-Feb-08 07:00N 50°14' W 001°37'6511.8
2018-Feb-08 01:30N 50°31' E 000°02'510.7
2018-Feb-08 01:00N 50°33' E 000°10'510.7
2018-Feb-08 00:30N 50°34' E 000°18'611.4
2018-Feb-08 00:00N 50°36' E 000°26'611.9
2018-Feb-07 23:30N 50°38' E 000°35'612.2
2018-Feb-07 23:00N 50°40' E 000°44'612.9
2018-Feb-07 22:30N 50°44' E 000°52'713.1
2018-Feb-07 22:00N 50°48' E 001°01'612.9
2018-Feb-07 21:30N 50°52' E 001°08'22711.2
2018-Feb-07 01:13N 54°04' E 004°28'311.4
2018-Feb-07 00:59N 54°06' E 004°30'611.4
2018-Feb-07 00:27N 54°12' E 004°36'511.3
2018-Feb-06 23:59N 54°16' E 004°41'611.2
2018-Feb-06 23:29N 54°21' E 004°47'25811.7
2018-Feb-06 01:27N 57°47' E 009°24'511.6
2018-Feb-06 01:00N 57°48' E 009°34'911.6
2018-Feb-06 00:15N 57°49' E 009°50'411.3
2018-Feb-05 23:51N 57°49' E 009°58'511.9
2018-Feb-05 23:27N 57°49' E 010°08'512.1
2018-Feb-05 23:00N 57°50' E 010°17'611.9
2018-Feb-05 22:30N 57°50' E 010°29'612.0
2018-Feb-05 22:00N 57°50' E 010°40'611.3
2018-Feb-05 21:30N 57°47' E 010°48'611.8
2018-Feb-05 21:00N 57°43' E 010°57'611.7
2018-Feb-05 20:30N 57°39' E 011°05'612.0
2018-Feb-05 20:00N 57°35' E 011°13'612.1
2018-Feb-05 19:30N 57°31' E 011°21'611.9
2018-Feb-05 19:00N 57°26' E 011°27'612.3
2018-Feb-05 18:30N 57°20' E 011°32'612.1
2018-Feb-05 18:00N 57°15' E 011°36'612.1
2018-Feb-05 17:30N 57°09' E 011°39'612.2
2018-Feb-05 17:00N 57°03' E 011°43'612.3
2018-Feb-05 16:30N 56°57' E 011°47'9610.9
2018-Feb-05 07:44N 55°25' E 010°59'313.5
2018-Feb-05 07:30N 55°23' E 011°02'613.0
2018-Feb-05 07:00N 55°16' E 011°04'  

Dump ship's entire track history